Time;durP1;ratioP1;P1;durP2;ratioP2;P2;SDS_P1;SDS_P2;PMS_P1;PMS_P2;Temp;Humidity;BMP_temperature;BMP_pressure;BME280_temperature;BME280_humidity;BME280_pressure;Samples;Min_cycle;Max_cycle;Signal;HPM_P1;HPM_P2
2023/04/14 00:00:16;;;;;;;14.50;9.43;;;;;;;11.79;100.00;100353.75;2532818;23;20634;-67
2023/04/14 00:01:17;;;;;;;13.80;9.50;;;;;;;11.91;100.00;100375.94;2532868;23;20158;-67
2023/04/14 00:02:17;;;;;;;13.53;9.37;;;;;;;10.77;100.00;100185.03;2532103;23;20514;-67
2023/04/14 00:03:18;;;;;;;12.23;8.50;;;;;;;10.80;100.00;100206.34;2532763;23;20379;-67
2023/04/14 00:04:18;;;;;;;12.87;9.13;;;;;;;10.69;100.00;100197.59;2532530;23;20676;-67
2023/04/14 00:05:19;;;;;;;16.40;9.73;;;;;;;10.99;100.00;100238.63;2532730;23;20157;-67
2023/04/14 00:06:20;;;;;;;14.33;9.50;;;;;;;11.61;100.00;100337.69;2532077;23;20161;-67
2023/04/14 00:07:20;;;;;;;19.40;9.67;;;;;;;11.75;100.00;100370.53;2519996;23;20191;-67
2023/04/14 00:08:21;;;;;;;18.90;10.03;;;;;;;11.29;100.00;100309.38;2520026;23;20189;-67
2023/04/14 00:09:21;;;;;;;17.17;9.03;;;;;;;11.72;100.00;100368.63;2533034;23;20627;-67
2023/04/14 00:10:22;;;;;;;14.80;8.30;;;;;;;11.72;100.00;100356.75;2532831;23;20217;-67
2023/04/14 00:11:23;;;;;;;15.87;9.07;;;;;;;11.71;100.00;100363.53;2532561;23;20158;-67
2023/04/14 00:12:23;;;;;;;13.97;7.17;;;;;;;11.70;100.00;100361.97;2532386;23;20382;-67
2023/04/14 00:13:24;;;;;;;15.23;9.37;;;;;;;11.68;100.00;100348.53;2532765;23;20161;-67
2023/04/14 00:14:24;;;;;;;20.10;9.47;;;;;;;11.67;100.00;100352.53;2532460;23;20154;-67
2023/04/14 00:15:25;;;;;;;13.20;7.40;;;;;;;11.67;100.00;100360.09;2532835;23;20643;-67
2023/04/14 00:16:25;;;;;;;18.57;8.50;;;;;;;11.69;100.00;100358.41;2532423;23;20157;-67
2023/04/14 00:17:26;;;;;;;14.87;8.10;;;;;;;11.68;100.00;100359.66;2532849;23;20667;-67
2023/04/14 00:18:27;;;;;;;10.97;7.67;;;;;;;11.66;100.00;100359.31;2532848;23;20150;-67
2023/04/14 00:19:27;;;;;;;12.13;7.57;;;;;;;11.62;100.00;100358.66;2532800;23;20233;-67
2023/04/14 00:20:27;;;;;;;13.37;7.03;;;;;;;11.59;100.00;100356.00;2532750;23;20150;-67
2023/04/14 00:21:28;;;;;;;8.73;5.80;;;;;;;11.59;100.00;100354.00;2532460;23;20161;-67
2023/04/14 00:22:28;;;;;;;12.50;7.93;;;;;;;11.62;100.00;100358.66;2532325;23;20157;-67
2023/04/14 00:23:29;;;;;;;15.87;8.53;;;;;;;11.65;100.00;100363.34;2532552;23;20268;-67
2023/04/14 00:24:29;;;;;;;11.93;8.87;;;;;;;11.63;100.00;100360.22;2532291;23;20159;-67
2023/04/14 00:25:30;;;;;;;13.57;9.70;;;;;;;11.61;100.00;100365.44;2532708;23;20174;-67
2023/04/14 00:26:31;;;;;;;13.60;9.60;;;;;;;11.59;100.00;100358.78;2532837;23;20670;-67
2023/04/14 00:27:32;;;;;;;9.73;8.27;;;;;;;11.52;100.00;100351.41;2532164;23;20233;-67
2023/04/14 00:28:32;;;;;;;12.00;8.27;;;;;;;11.54;100.00;100357.28;2532634;23;20384;-67
2023/04/14 00:29:33;;;;;;;12.40;8.50;;;;;;;11.53;100.00;100360.53;2519638;23;20177;-67
2023/04/14 00:30:34;;;;;;;11.07;8.13;;;;;;;11.47;100.00;100363.06;2519836;23;20183;-67
2023/04/14 00:31:34;;;;;;;11.57;8.23;;;;;;;11.43;100.00;100364.41;2532414;23;20233;-67
2023/04/14 00:32:35;;;;;;;10.37;8.17;;;;;;;11.39;100.00;100367.31;2532433;23;20158;-67
2023/04/14 00:33:35;;;;;;;11.67;8.10;;;;;;;11.33;100.00;100360.72;2532732;23;20178;-67
2023/04/14 00:34:35;;;;;;;11.70;8.33;;;;;;;11.26;100.00;100358.19;2532188;23;20157;-67
2023/04/14 00:35:36;;;;;;;13.97;8.00;;;;;;;10.37;100.00;100233.00;2533017;23;20151;-67
2023/04/14 00:36:36;;;;;;;14.00;8.07;;;;;;;11.20;100.00;100362.75;2532745;23;20153;-68
2023/04/14 00:37:37;;;;;;;13.87;8.83;;;;;;;11.15;100.00;100359.72;2519025;23;20214;-67
2023/04/14 00:38:37;;;;;;;13.73;8.27;;;;;;;11.10;100.00;100363.06;2519818;23;20185;-67
2023/04/14 00:39:38;;;;;;;13.07;8.50;;;;;;;11.04;100.00;100354.53;2532629;23;20156;-67
2023/04/14 00:40:38;;;;;;;12.50;7.90;;;;;;;11.09;100.00;100355.94;2532765;23;20149;-67
2023/04/14 00:41:38;;;;;;;11.50;7.23;;;;;;;10.64;100.00;100294.34;2531967;23;20150;-67
2023/04/14 00:42:43;;;;;;;13.13;7.63;;;;;;;11.07;100.00;100367.47;2531660;23;20161;-67
2023/04/14 00:43:44;;;;;;;12.80;8.10;;;;;;;11.10;100.00;100363.84;2532648;23;20160;-67
2023/04/14 00:44:46;;;;;;;14.17;8.00;;;;;;;11.12;100.00;100366.19;2532312;23;20382;-67
2023/04/14 00:45:49;;;;;;;11.37;8.50;;;;;;;11.13;100.00;100364.94;2532594;23;20565;-67
2023/04/14 00:46:50;;;;;;;13.43;8.00;;;;;;;11.10;100.00;100366.59;2532715;23;20392;-67
2023/04/14 00:47:51;;;;;;;11.53;7.43;;;;;;;11.13;100.00;100374.03;2532048;23;20389;-67
2023/04/14 00:48:54;;;;;;;11.90;7.80;;;;;;;10.87;100.00;100338.41;2532512;23;20921;-67
2023/04/14 00:49:55;;;;;;;11.77;7.73;;;;;;;11.12;100.00;100366.19;2532546;23;20157;-67
2023/04/14 00:50:56;;;;;;;12.13;8.00;;;;;;;11.12;100.00;100372.47;2532666;23;20393;-67
2023/04/14 00:51:56;;;;;;;15.07;8.30;;;;;;;11.00;100.00;100353.06;2531793;23;20384;-67
2023/04/14 00:52:57;;;;;;;10.50;7.60;;;;;;;11.05;100.00;100367.16;2532908;23;20496;-67
2023/04/14 00:53:57;;;;;;;12.63;6.83;;;;;;;11.09;100.00;100365.06;2532784;23;20161;-67
2023/04/14 00:54:59;;;;;;;9.87;6.70;;;;;;;11.09;100.00;100359.53;2532514;23;20218;-67
2023/04/14 00:56:00;;;;;;;9.87;6.90;;;;;;;11.02;100.00;100356.19;2532322;23;20154;-67
2023/04/14 00:57:01;;;;;;;9.63;6.30;;;;;;;10.16;100.00;100233.63;2532783;23;20424;-67
2023/04/14 00:58:02;;;;;;;8.83;6.20;;;;;;;10.95;100.00;100357.16;2531485;23;20157;-67
2023/04/14 00:59:05;;;;;;;8.80;5.97;;;;;;;10.93;100.00;100354.06;2532563;23;20385;-67
2023/04/14 01:00:06;;;;;;;8.97;6.03;;;;;;;10.92;100.00;100354.50;2532562;23;20647;-67
2023/04/14 01:01:07;;;;;;;8.97;5.77;;;;;;;10.82;100.00;100350.78;2519863;23;20417;-67
2023/04/14 01:02:08;;;;;;;9.20;6.13;;;;;;;10.85;100.00;100358.25;2506876;23;20410;-67
2023/04/14 01:03:08;;;;;;;9.70;7.13;;;;;;;10.86;100.00;100356.25;2519670;23;20378;-67
2023/04/14 01:04:09;;;;;;;10.10;6.47;;;;;;;10.84;100.00;100359.47;2532338;23;20164;-67
2023/04/14 01:05:10;;;;;;;9.60;6.07;;;;;;;10.82;100.00;100363.91;2532517;23;20216;-67
2023/04/14 01:06:10;;;;;;;9.87;6.17;;;;;;;10.78;100.00;100354.91;2519140;23;20398;-67
2023/04/14 01:07:11;;;;;;;11.80;6.03;;;;;;;10.75;100.00;100356.56;2519986;23;20560;-67
2023/04/14 01:08:11;;;;;;;10.63;6.23;;;;;;;10.68;100.00;100356.78;2531909;23;20205;-67
2023/04/14 01:09:14;;;;;;;9.57;6.63;;;;;;;9.88;100.00;100254.53;2532740;23;20232;-67
2023/04/14 01:10:15;;;;;;;13.87;6.70;;;;;;;10.65;100.00;100365.94;2532283;23;20190;-67
2023/04/14 01:11:44;;;;;;;12.13;6.63;;;;;;;10.66;100.00;100366.75;2532651;23;20432;-67
2023/04/14 01:12:45;;;;;;;9.35;6.53;;;;;;;10.67;100.00;100362.75;2532574;23;20280;-67
2023/04/14 01:13:59;;;;;;;12.93;6.63;;;;;;;10.67;100.00;100362.75;2532525;23;20217;-67
2023/04/14 01:15:03;;;;;;;10.17;6.90;;;;;;;10.69;100.00;100363.84;2532921;23;20560;-67
2023/04/14 01:16:13;;;;;;;9.97;6.37;;;;;;;10.67;100.00;100362.75;2532038;23;20389;-67
2023/04/14 01:17:53;;;;;;;8.90;6.37;;;;;;;10.68;100.00;100362.31;2532783;23;20380;-67
2023/04/14 01:19:15;;;;;;;9.23;6.20;;;;;;;10.69;100.00;100357.53;2497169;23;20372;-67
2023/04/14 01:20:32;;;;;;;9.33;6.00;;;;;;;10.66;100.00;100350.88;2532445;23;20452;-67
2023/04/14 01:21:40;;;;;;;9.60;5.63;;;;;;;10.63;100.00;100359.28;2532403;23;20428;-67
2023/04/14 01:22:53;;;;;;;9.65;6.35;;;;;;;10.66;100.00;100377.81;2532808;23;20285;-67
2023/04/14 01:24:21;;;;;;;8.27;5.93;;;;;;;10.66;100.00;100359.19;2532629;23;20142;-67
2023/04/14 01:25:58;;;;;;;8.67;6.27;;;;;;;10.73;100.00;100360.97;2532311;23;20370;-67
2023/04/14 01:27:15;;;;;;;12.00;6.50;;;;;;;10.69;100.00;100355.53;2532243;23;20376;-67
2023/04/14 01:28:36;;;;;;;9.83;6.60;;;;;;;10.33;100.00;100307.09;2532473;23;20961;-67
2023/04/14 01:29:59;;;;;;;10.13;6.53;;;;;;;10.66;100.00;100364.72;2519100;23;20373;-67
2023/04/14 01:31:37;;;;;;;11.80;6.63;;;;;;;10.64;100.00;100366.38;2524709;23;20147;-67
2023/04/14 01:32:43;;;;;;;9.82;6.38;;;;;;;10.59;100.00;100356.63;2532494;23;20136;-67
2023/04/14 01:33:48;;;;;;;9.55;6.10;;;;;;;10.66;100.00;100367.50;2532520;23;20150;-67
2023/04/14 01:34:48;;;;;;;8.13;5.73;;;;;;;10.63;100.00;100367.59;2532445;23;20163;-67
2023/04/14 01:35:53;;;;;;;9.27;5.40;;;;;;;10.63;100.00;100375.91;2519697;23;20451;-67
2023/04/14 01:36:57;;;;;;;9.50;5.50;;;;;;;10.64;100.00;100378.25;2520215;23;20146;-67
2023/04/14 01:38:05;;;;;;;6.93;5.20;;;;;;;10.62;100.00;100375.16;2532585;23;20468;-67
2023/04/14 01:39:10;;;;;;;10.30;5.27;;;;;;;10.64;100.00;100372.72;2532366;23;20382;-67
2023/04/14 01:40:15;;;;;;;9.10;5.50;;;;;;;9.78;100.00;100252.06;2532086;23;20463;-67
2023/04/14 01:41:17;;;;;;;8.07;5.10;;;;;;;10.63;100.00;100378.69;2519606;23;20383;-67
2023/04/14 01:42:20;;;;;;;8.47;5.50;;;;;;;9.73;100.00;100250.56;2518967;23;20386;-67
2023/04/14 01:43:27;;;;;;;9.30;5.17;;;;;;;10.59;100.00;100387.09;2519698;23;21078;-67
2023/04/14 01:44:29;;;;;;;10.53;5.63;;;;;;;10.62;100.00;100375.16;2508896;23;20381;-67
2023/04/14 01:45:38;;;;;;;9.18;5.70;;;;;;;10.60;100.00;100374.78;2519953;23;20382;-67
2023/04/14 01:46:40;;;;;;;11.50;5.30;;;;;;;10.61;100.00;100373.56;2532338;23;20274;-67
2023/04/14 01:47:43;;;;;;;11.57;5.90;;;;;;;10.60;100.00;100377.56;2532230;23;20245;-67
2023/04/14 01:48:44;;;;;;;13.63;5.80;;;;;;;10.62;100.00;100382.69;2532502;23;20539;-67
2023/04/14 01:49:47;;;;;;;11.50;5.20;;;;;;;10.64;100.00;100386.56;2518723;23;20903;-67
2023/04/14 01:50:48;;;;;;;12.23;5.30;;;;;;;10.63;100.00;100384.22;2520236;23;20459;-67
2023/04/14 01:51:50;;;;;;;11.40;5.30;;;;;;;10.60;100.00;100377.56;2531707;23;20471;-67
2023/04/14 01:52:55;;;;;;;10.40;5.13;;;;;;;10.13;100.00;100307.25;2532512;23;20843;-67
2023/04/14 01:53:58;;;;;;;9.23;5.00;;;;;;;10.09;100.00;100298.25;2532547;23;20141;-67
2023/04/14 01:55:04;;;;;;;8.40;5.25;;;;;;;10.61;100.00;100376.34;2532386;23;20443;-67
2023/04/14 01:56:08;;;;;;;12.60;5.43;;;;;;;10.62;100.00;100377.13;2532490;23;20141;-67
2023/04/14 01:57:11;;;;;;;9.40;5.10;;;;;;;9.68;100.00;100242.03;2532378;23;20424;-67
2023/04/14 01:58:15;;;;;;;8.73;5.30;;;;;;;10.62;100.00;100380.69;2532302;23;20157;-67
2023/04/14 01:59:17;;;;;;;7.03;4.90;;;;;;;10.60;100.00;100374.78;2532581;23;20843;-67
2023/04/14 02:00:19;;;;;;;6.40;4.67;;;;;;;10.29;100.00;100334.91;2531653;23;20375;-67
2023/04/14 02:01:20;;;;;;;7.53;4.47;;;;;;;10.58;100.00;100376.44;2519584;23;20394;-67
2023/04/14 02:02:22;;;;;;;5.63;4.57;;;;;;;10.56;100.00;100373.34;2518953;23;20410;-67
2023/04/14 02:03:24;;;;;;;8.02;5.15;;;;;;;9.81;100.00;100274.09;2532498;23;20156;-67
2023/04/14 02:04:27;;;;;;;8.15;4.75;;;;;;;10.48;100.00;100375.53;2532476;23;20160;-67
2023/04/14 02:05:30;;;;;;;9.80;4.70;;;;;;;10.41;100.00;100363.88;2532439;23;20537;-67
2023/04/14 02:06:32;;;;;;;6.50;4.63;;;;;;;10.44;100.00;100371.28;2532583;23;20725;-67
2023/04/14 02:07:33;;;;;;;7.17;4.40;;;;;;;10.46;100.00;100372.41;2532014;23;20374;-67
2023/04/14 02:08:36;;;;;;;6.35;4.72;;;;;;;10.47;100.00;100381.50;2532625;23;20380;-67
2023/04/14 02:09:39;;;;;;;5.85;4.60;;;;;;;10.46;100.00;100386.25;2532357;23;20150;-67
2023/04/14 02:10:44;;;;;;;4.97;4.30;;;;;;;10.46;100.00;100382.72;2531518;23;20530;-67
2023/04/14 02:11:48;;;;;;;7.25;4.25;;;;;;;10.43;100.00;100384.38;2531823;23;20157;-67
2023/04/14 02:12:51;;;;;;;6.75;4.20;;;;;;;10.48;100.00;100380.28;2532553;23;20156;-67
2023/04/14 02:13:54;;;;;;;4.80;3.72;;;;;;;10.49;100.00;100385.41;2532425;23;20153;-67
2023/04/14 02:14:58;;;;;;;6.38;4.07;;;;;;;10.48;100.00;100389.38;2532882;23;20431;-67
2023/04/14 02:16:00;;;;;;;8.18;4.10;;;;;;;10.49;100.00;100392.91;2533295;23;20153;-67
2023/04/14 02:17:01;;;;;;;8.20;4.20;;;;;;;10.44;100.00;100376.84;2533298;23;20599;-67
2023/04/14 02:18:04;;;;;;;5.97;3.93;;;;;;;10.42;100.00;100380.06;2532721;23;20729;-67
2023/04/14 02:19:05;;;;;;;5.80;4.22;;;;;;;10.44;100.00;100377.63;2533350;23;20156;-67
2023/04/14 02:20:08;;;;;;;6.73;4.53;;;;;;;10.43;100.00;100376.06;2533217;23;20239;-67
2023/04/14 02:21:09;;;;;;;12.90;5.10;;;;;;;10.43;100.00;100378.84;2532699;23;20161;-67
2023/04/14 02:22:10;;;;;;;15.73;5.90;;;;;;;10.44;100.00;100374.06;2532363;23;20158;-67
2023/04/14 02:23:11;;;;;;;7.27;4.03;;;;;;;10.48;100.00;100375.53;2533113;23;20390;-67
2023/04/14 02:24:11;;;;;;;9.63;4.65;;;;;;;10.52;100.00;100373.47;2532957;23;20506;-67
2023/04/14 02:25:12;;;;;;;6.70;4.27;;;;;;;10.55;100.00;100375.34;2533248;23;20153;-67
2023/04/14 02:26:15;;;;;;;10.13;5.00;;;;;;;10.57;100.00;100381.22;2533062;23;20238;-67
2023/04/14 02:27:21;;;;;;;8.90;4.55;;;;;;;10.59;100.00;100376.03;2533453;23;20154;-67
2023/04/14 02:28:27;;;;;;;8.43;4.60;;;;;;;10.59;100.00;100372.47;2532701;23;20653;-67
2023/04/14 02:29:29;;;;;;;6.63;4.55;;;;;;;10.50;100.00;100355.72;2520366;23;20157;-67
2023/04/14 02:30:34;;;;;;;8.43;4.85;;;;;;;10.60;100.00;100379.59;2520571;23;20201;-67
2023/04/14 02:31:41;;;;;;;5.90;3.97;;;;;;;10.56;100.00;100374.13;2519156;23;20600;-67
2023/04/14 02:32:51;;;;;;;5.50;4.00;;;;;;;10.61;100.00;100372.81;2521796;23;20145;-67
2023/04/14 02:33:54;;;;;;;8.67;4.43;;;;;;;10.61;100.00;100376.34;2533325;23;20388;-67
2023/04/14 02:35:03;;;;;;;6.73;4.17;;;;;;;10.54;100.00;100354.38;2533383;23;20391;-67
2023/04/14 02:36:12;;;;;;;8.20;4.43;;;;;;;10.42;100.00;100334.94;2533165;23;20373;-67
2023/04/14 02:37:20;;;;;;;7.60;4.03;;;;;;;10.64;100.00;100361.63;2533465;23;20366;-67
2023/04/14 02:38:26;;;;;;;5.10;4.13;;;;;;;10.64;100.00;100361.63;2533004;23;20373;-67
2023/04/14 02:39:31;;;;;;;5.73;4.30;;;;;;;10.67;100.00;100368.28;2533102;23;20166;-67
2023/04/14 02:40:36;;;;;;;6.97;4.53;;;;;;;10.67;100.00;100371.81;2533191;23;20387;-67
2023/04/14 02:41:41;;;;;;;7.07;4.20;;;;;;;10.67;100.00;100365.50;2532163;23;20672;-67
2023/04/14 02:42:44;;;;;;;6.67;4.00;;;;;;;10.66;100.00;100375.06;2533121;23;20412;-67
2023/04/14 02:43:57;;;;;;;6.90;4.30;;;;;;;10.66;100.00;100356.41;2533045;23;20385;-67
2023/04/14 02:45:04;;;;;;;6.00;3.50;;;;;;;10.66;100.00;100359.19;2532964;23;20715;-67
2023/04/14 02:46:05;;;;;;;6.97;3.90;;;;;;;10.52;100.00;100328.34;2533047;23;20379;-67
2023/04/14 02:47:12;;;;;;;5.87;3.67;;;;;;;10.66;100.00;100361.19;2533212;23;20385;-67
2023/04/14 02:48:15;;;;;;;9.13;3.80;;;;;;;10.69;100.00;100354.75;2520220;23;21007;-67
2023/04/14 02:49:17;;;;;;;10.73;4.30;;;;;;;10.02;100.00;100254.16;2508307;23;20406;-67
2023/04/14 02:50:20;;;;;;;6.70;4.15;;;;;;;9.97;100.00;100238.06;2520504;23;20435;-67
2023/04/14 02:51:23;;;;;;;10.80;4.50;;;;;;;10.79;100.00;100357.25;2533003;23;20501;-67
2023/04/14 02:52:28;;;;;;;9.13;5.07;;;;;;;9.71;100.00;100192.13;2531830;23;20389;-67
2023/04/14 02:53:29;;;;;;;7.07;4.20;;;;;;;10.82;100.00;100359.13;2532944;23;20894;-67
2023/04/14 02:54:33;;;;;;;7.37;4.43;;;;;;;10.76;100.00;100343.50;2533265;23;20498;-67
2023/04/14 02:55:34;;;;;;;7.57;4.47;;;;;;;10.81;100.00;100354.03;2533179;23;20607;-67
2023/04/14 02:56:34;;;;;;;6.63;4.20;;;;;;;9.93;100.00;100218.00;2533107;23;20381;-67
2023/04/14 02:57:36;;;;;;;9.27;4.00;;;;;;;10.85;100.00;100360.22;2533136;23;20473;-67
2023/04/14 02:58:38;;;;;;;8.30;4.10;;;;;;;10.84;100.00;100362.25;2532808;23;20546;-67
2023/04/14 02:59:41;;;;;;;6.18;4.28;;;;;;;10.66;100.00;100339.78;2532437;23;20441;-67
2023/04/14 03:00:42;;;;;;;5.47;4.50;;;;;;;10.84;100.00;100364.22;2532446;23;20205;-67
2023/04/14 03:01:44;;;;;;;6.22;4.28;;;;;;;10.85;100.00;100354.69;2532291;23;20900;-67
2023/04/14 03:02:45;;;;;;;6.07;4.22;;;;;;;10.54;100.00;100306.50;2532787;23;20161;-67
2023/04/14 03:03:47;;;;;;;4.93;4.20;;;;;;;10.83;100.00;100357.91;2532956;23;20183;-67
2023/04/14 03:04:48;;;;;;;5.80;4.30;;;;;;;9.34;100.00;100123.59;2533073;23;20375;-67
2023/04/14 03:05:49;;;;;;;6.53;4.00;;;;;;;10.75;100.00;100351.00;2533014;23;20472;-67
2023/04/14 03:06:51;;;;;;;6.53;4.20;;;;;;;10.75;100.00;100344.69;2532997;23;20219;-67
2023/04/14 03:07:53;;;;;;;6.67;4.27;;;;;;;10.64;100.00;100327.59;2533198;23;20714;-67
2023/04/14 03:08:57;;;;;;;5.07;4.00;;;;;;;10.62;100.00;100318.94;2533057;23;20385;-67
2023/04/14 03:09:59;;;;;;;7.47;4.47;;;;;;;10.77;100.00;100342.25;2532519;23;20476;-67
2023/04/14 03:11:01;;;;;;;7.43;4.60;;;;;;;10.69;100.00;100327.84;2532948;23;20471;-67
2023/04/14 03:12:03;;;;;;;7.90;4.40;;;;;;;10.75;100.00;100339.13;2519324;23;20449;-67
2023/04/14 03:13:05;;;;;;;9.73;4.73;;;;;;;10.66;100.00;100334.25;2507812;23;20436;-67
2023/04/14 03:14:06;;;;;;;12.95;5.50;;;;;;;10.74;100.00;100335.59;2520358;23;20396;-67
2023/04/14 03:15:08;;;;;;;8.70;5.30;;;;;;;10.74;100.00;100337.59;2520374;23;20158;-67
2023/04/14 03:16:09;;;;;;;10.30;5.07;;;;;;;10.73;100.00;100336.81;2520418;23;20151;-67
2023/04/14 03:17:10;;;;;;;11.17;4.87;;;;;;;10.73;100.00;100336.03;2533299;23;20475;-67
2023/04/14 03:18:11;;;;;;;7.40;4.77;;;;;;;10.69;100.00;100336.16;2532982;23;20504;-67
2023/04/14 03:19:13;;;;;;;7.10;4.40;;;;;;;10.68;100.00;100331.03;2533095;23;20163;-67
2023/04/14 03:20:18;;;;;;;8.30;4.53;;;;;;;10.64;100.00;100330.34;2532384;23;20384;-67
2023/04/14 03:21:20;;;;;;;7.20;4.80;;;;;;;10.63;100.00;100332.38;2533142;23;20869;-67
2023/04/14 03:22:22;;;;;;;5.67;4.30;;;;;;;10.61;100.00;100320.16;2532681;23;20576;-67
2023/04/14 03:23:24;;;;;;;8.13;4.70;;;;;;;10.57;100.00;100323.06;2532326;23;20377;-67
2023/04/14 03:24:29;;;;;;;11.32;4.85;;;;;;;10.46;100.00;100319.78;2533133;23;20592;-67
2023/04/14 03:25:33;;;;;;;7.60;4.60;;;;;;;10.49;100.00;100307.03;2532996;23;20171;-67
2023/04/14 03:26:36;;;;;;;8.70;4.72;;;;;;;10.54;100.00;100309.28;2532530;23;20377;-67
2023/04/14 03:27:38;;;;;;;9.20;5.07;;;;;;;10.49;100.00;100290.41;2533124;23;20222;-67
2023/04/14 03:28:41;;;;;;;9.27;4.77;;;;;;;10.54;100.00;100312.81;2532976;23;20161;-67
2023/04/14 03:29:45;;;;;;;8.53;4.60;;;;;;;10.50;100.00;100298.28;2532929;23;20374;-67
2023/04/14 03:30:50;;;;;;;7.53;4.40;;;;;;;10.48;100.00;100284.13;2532772;23;20460;-67
2023/04/14 03:31:54;;;;;;;8.17;4.80;;;;;;;10.07;100.00;100227.94;2532175;23;20882;-67
2023/04/14 03:33:02;;;;;;;5.20;4.20;;;;;;;10.17;100.00;100247.03;2532719;23;20387;-67
2023/04/14 03:34:05;;;;;;;7.37;4.77;;;;;;;10.56;100.00;100313.16;2532667;23;20404;-67
2023/04/14 03:35:08;;;;;;;6.30;4.87;;;;;;;10.62;100.00;100288.47;2532909;23;20833;-67
2023/04/14 03:36:10;;;;;;;8.13;5.20;;;;;;;10.66;100.00;100291.91;2532926;23;20377;-67
2023/04/14 03:37:15;;;;;;;9.30;5.07;;;;;;;10.70;100.00;100298.09;2533151;23;20157;-67
2023/04/14 03:38:15;;;;;;;6.67;4.97;;;;;;;10.58;100.00;100285.81;2532944;23;20433;-67
2023/04/14 03:39:17;;;;;;;7.40;4.67;;;;;;;10.75;100.00;100287.25;2533092;23;20412;-67
2023/04/14 03:40:18;;;;;;;8.27;4.77;;;;;;;10.51;100.00;100244.44;2532674;23;20232;-67
2023/04/14 03:41:20;;;;;;;6.80;5.17;;;;;;;10.80;100.00;100280.38;2532643;23;20852;-67
2023/04/14 03:42:24;;;;;;;8.00;4.73;;;;;;;10.80;100.00;100288.72;2532172;23;20167;-67
2023/04/14 03:43:27;;;;;;;9.20;5.60;;;;;;;10.80;100.00;100280.38;2532692;23;20390;-67
2023/04/14 03:44:33;;;;;;;8.30;5.50;;;;;;;10.70;100.00;100268.41;2532770;23;20386;-67
2023/04/14 03:45:35;;;;;;;8.77;6.03;;;;;;;10.65;100.00;100262.66;2532990;23;20358;-67
2023/04/14 03:46:35;;;;;;;9.83;6.33;;;;;;;10.13;100.00;100182.66;2532883;23;20500;-67
2023/04/14 03:47:36;;;;;;;10.33;6.30;;;;;;;10.74;100.00;100266.31;2532936;23;20375;-67
2023/04/14 03:48:41;;;;;;;7.93;6.10;;;;;;;10.45;100.00;100239.91;2532858;23;20154;-67
2023/04/14 03:49:45;;;;;;;8.63;6.37;;;;;;;10.83;100.00;100274.75;2532800;23;20614;-67
2023/04/14 03:50:50;;;;;;;9.27;6.30;;;;;;;10.85;100.00;100272.31;2532617;23;20461;-67
2023/04/14 03:51:56;;;;;;;6.80;5.93;;;;;;;10.50;100.00;100212.41;2532154;23;20370;-67
2023/04/14 03:53:00;;;;;;;8.13;5.30;;;;;;;11.01;100.00;100286.06;2533050;23;20426;-67
2023/04/14 03:54:04;;;;;;;9.40;6.13;;;;;;;11.01;100.00;100277.00;2532057;23;20413;-67
2023/04/14 03:55:07;;;;;;;9.37;5.93;;;;;;;10.99;100.00;100277.44;2533199;23;20741;-67
2023/04/14 03:56:12;;;;;;;9.00;6.53;;;;;;;10.99;100.00;100280.19;2532696;23;20400;-67
2023/04/14 03:57:16;;;;;;;9.07;5.70;;;;;;;10.96;100.00;100270.00;2533206;23;20376;-67
2023/04/14 03:58:18;;;;;;;10.30;6.23;;;;;;;10.83;100.00;100254.56;2532535;23;20404;-67
2023/04/14 03:59:22;;;;;;;9.87;6.20;;;;;;;10.92;100.00;100269.31;2532939;23;20369;-67
2023/04/14 04:00:25;;;;;;;7.70;5.83;;;;;;;10.92;100.00;100261.00;2532917;23;20382;-67
2023/04/14 04:01:26;;;;;;;8.50;5.60;;;;;;;10.94;100.00;100255.00;2532005;23;20438;-67
2023/04/14 04:02:29;;;;;;;8.50;6.07;;;;;;;10.91;100.00;100259.44;2532460;23;20919;-67
2023/04/14 04:03:32;;;;;;;7.70;5.57;;;;;;;10.44;100.00;100175.41;2532650;23;20157;-67
2023/04/14 04:04:35;;;;;;;7.50;5.73;;;;;;;10.92;100.00;100247.13;2532140;23;20378;-67
2023/04/14 04:05:39;;;;;;;7.07;5.73;;;;;;;11.10;100.00;100272.31;2532839;23;20841;-67
2023/04/14 04:06:40;;;;;;;6.77;5.60;;;;;;;11.07;100.00;100275.97;2520035;23;20390;-67
2023/04/14 04:07:43;;;;;;;7.33;5.50;;;;;;;11.07;100.00;100267.66;2520181;23;20380;-67
2023/04/14 04:08:46;;;;;;;9.03;5.60;;;;;;;11.31;100.00;100291.06;2532822;23;20386;-67
2023/04/14 04:09:49;;;;;;;12.70;6.30;;;;;;;10.62;100.00;100183.97;2532814;23;20445;-67
2023/04/14 04:10:51;;;;;;;10.93;5.87;;;;;;;11.44;100.00;100293.81;2532608;23;20441;-67
2023/04/14 04:11:52;;;;;;;15.47;6.03;;;;;;;11.49;100.00;100291.28;2531533;23;21027;-67
2023/04/14 04:12:56;;;;;;;16.80;6.47;;;;;;;10.82;100.00;100181.72;2520027;23;20889;-67
2023/04/14 04:13:58;;;;;;;9.33;5.80;;;;;;;11.50;100.00;100278.16;2520515;23;20813;-67
2023/04/14 04:15:00;;;;;;;8.57;5.70;;;;;;;11.47;100.00;100268.72;2532193;23;20923;-67
2023/04/14 04:16:01;;;;;;;9.10;5.50;;;;;;;11.00;100.00;100192.25;2532959;23;20450;-67
2023/04/14 04:17:06;;;;;;;8.67;5.70;;;;;;;11.58;100.00;100276.72;2533036;23;20451;-67
2023/04/14 04:18:09;;;;;;;6.90;5.40;;;;;;;11.63;100.00;100281.72;2532703;23;20147;-67
2023/04/14 04:19:13;;;;;;;7.73;5.23;;;;;;;11.55;100.00;100267.28;2532829;23;20428;-67
2023/04/14 04:20:15;;;;;;;9.07;5.57;;;;;;;10.88;100.00;100157.78;2532658;23;20436;-67
2023/04/14 04:21:18;;;;;;;9.83;5.53;;;;;;;11.67;100.00;100276.81;2532962;23;20405;-67
2023/04/14 04:22:20;;;;;;;8.37;5.37;;;;;;;11.27;100.00;100209.97;2531425;23;20716;-67
2023/04/14 04:23:23;;;;;;;13.50;5.60;;;;;;;11.82;100.00;100289.78;2532711;23;20378;-67
2023/04/14 04:24:27;;;;;;;13.33;5.77;;;;;;;11.83;100.00;100288.56;2532681;23;20382;-67
2023/04/14 04:25:31;;;;;;;12.90;5.70;;;;;;;11.12;100.00;100180.38;2531970;23;20406;-68
2023/04/14 04:26:34;;;;;;;11.87;5.67;;;;;;;11.86;100.00;100290.44;2532804;23;20723;-67
2023/04/14 04:27:35;;;;;;;12.13;6.40;;;;;;;11.92;100.00;100290.63;2532886;23;20375;-67
2023/04/14 04:28:37;;;;;;;12.57;6.00;;;;;;;11.96;100.00;100294.06;2532822;23;20383;-67
2023/04/14 04:29:37;;;;;;;12.77;5.83;;;;;;;12.01;100.00;100305.41;2532658;23;20493;-67
2023/04/14 04:30:41;;;;;;;11.97;5.77;;;;;;;12.07;100.00;100306.38;2532729;23;20456;-67
2023/04/14 04:31:42;;;;;;;11.53;5.67;;;;;;;12.07;100.00;100308.34;2531845;23;20169;-67
2023/04/14 04:32:42;;;;;;;11.63;5.70;;;;;;;12.09;100.00;100295.56;2532188;23;20896;-67
2023/04/14 04:33:45;;;;;;;11.97;5.77;;;;;;;12.11;100.00;100292.34;2532715;23;20154;-67
2023/04/14 04:34:48;;;;;;;9.57;5.30;;;;;;;12.12;100.00;100294.69;2532689;23;20396;-67
2023/04/14 04:35:49;;;;;;;10.33;5.70;;;;;;;11.95;100.00;100279.41;2532001;23;20711;-67
2023/04/14 04:36:51;;;;;;;13.47;6.23;;;;;;;11.73;100.00;100236.19;2532779;23;20382;-67
2023/04/14 04:37:53;;;;;;;16.07;6.63;;;;;;;11.54;100.00;100210.22;2532699;23;20392;-67
2023/04/14 04:38:53;;;;;;;18.50;6.43;;;;;;;12.11;100.00;100303.47;2532659;23;20756;-67
2023/04/14 04:39:57;;;;;;;14.03;5.63;;;;;;;11.01;100.00;100133.56;2532682;23;20397;-67
2023/04/14 04:40:57;;;;;;;10.43;5.57;;;;;;;12.16;100.00;100314.00;2532769;23;20179;-67
2023/04/14 04:42:05;;;;;;;10.47;5.50;;;;;;;12.18;100.00;100317.88;2531900;23;20452;-68
2023/04/14 04:43:05;;;;;;;9.03;5.17;;;;;;;12.18;100.00;100323.44;2532375;23;20338;-67
2023/04/14 04:44:06;;;;;;;8.37;5.40;;;;;;;12.22;100.00;100326.88;2532546;23;20386;-67
2023/04/14 04:45:07;;;;;;;12.30;5.60;;;;;;;12.21;100.00;100321.75;2532698;23;20482;-67
2023/04/14 04:46:14;;;;;;;11.07;5.90;;;;;;;12.20;100.00;100326.53;2531782;23;20157;-67
2023/04/14 04:47:15;;;;;;;17.33;6.80;;;;;;;12.16;100.00;100317.56;2532780;23;20705;-67
2023/04/14 04:48:15;;;;;;;11.07;6.20;;;;;;;11.99;100.00;100295.97;2532693;23;20409;-67
2023/04/14 04:49:16;;;;;;;9.83;5.90;;;;;;;12.18;100.00;100323.44;2532843;23;20179;-67
2023/04/14 04:50:16;;;;;;;11.70;6.20;;;;;;;12.14;100.00;100310.91;2532451;23;20181;-67